Aviation Digital Data Service (ADDS)

Output produced by METARs form (1443 UTC 20 September 2017)
found at http://www.aviationweather.gov/adds/metars/
 
TAF SBAT 201000Z 2012/2024 00000KT 3000 FU NSC TN27/2012Z TX38/2018Z 
     BECMG 2013/2015 10008KT 
     BECMG 2015/2017 12010KT 3000 FU 
     BECMG 2020/2022 03003KT 2000 FU RMK PEO
       
TAF SBAN 200800Z 2012/2024 10016KT CAVOK TN22/2012Z TX29/2017Z
     TEMPO 2016/2019 15012KT 9999 SCT045 RMK PEC
       
TAF SBAR 201000Z 2012/2024 11011KT 8000 SCT016 TX27/2014Z TN24/2022Z RMK PBO
       
TAF SBBG 200930Z 2012/2112 06007KT CAVOK TX32/2018Z TN19/2109Z TEMP 2 012/2013 8000 SCT010 
     BECMG 2016/2018 36008KT 
     BECMG 2100/2102 04008KT RMK PDV
       
TAF SBBW 200800Z 2012/2024 11005KT CAVOK TN29/2012Z TX37/2018Z 
     PROB40 2018/2021 9999 FEW030RMK PEC
       
TAF SBBU 200930Z 2012/2024 05010KT CAVOK TN23/2012Z TX34/2018Z 
     BECMG 2012/2014 08009KT RMK PDV
       
TAF SBBE 201000Z 2012/2112 06005KT 9999 FEW020 TX33/2017Z TN24/2106Z 
     BECMG 2014/2016 36005KT BKN035 
     PROB30 
     TEMPO 2019/2021 8000 RA SCT030 FEW03 5TCU 
     BECMG 2022/2024 06010KT CAVOK 
     BECMG 2106/2108 06005KT 5000 BR NSC RM K PEO
       
TAF SBCF 200800Z 2012/2112 07010KT 9999 BKN035 TX26/2018Z TN15/2108Z 
     BECMG 2018/2019 07010KT CAVOK 
     BECMG 2102/2104 11010KT RMK PEC
       
TAF SBBV 201000Z 2012/2112 35003KT 9999 FEW015 TX32/2017Z TN26/2107Z 
     BECMG 2013/2015 21010KT SCT025 FEW030TCU 
     PROB30 2018/2021 30010KT 5000 RA BKN025 FEW030TCU 
     BECMG 2022/2024 34005KT FEW030 FEW035TCU 
     BECMG 2106/2108 3 6005KT FEW010 RMK PEO
       
TAF SBLP 201000Z 2012/2024 16009KT 9999 SCT030 TN27/2012Z TX33/2018Z RMK PBO
       
TAF SBBR 200800Z 2012/2112 13010KT CAVOK TX30/2017Z TN15/2107Z 
     BECMG 2020/2022 18010KT 
     BECMG 2100/2102 00000KT 
     BECMG 2110/2111 12010KT RMK PEC
       
TAF SBCB 200900Z 2012/2112 08020KT CAVOK TX31/2015Z TN21/2109Z 
     BECMG 2020/2022 06015KT 
     BECMG 2110/2112 08020KT RMK PGX
       
TAF SBKG 201000Z 2012/2024 12013KT 8000 BKN040 TX28/2015Z TN21/2022Z 
     PROB30 2012/2014 BKN013 RMK PBO
       
TAF SBKP 200900Z 2012/2112 12010KT CAVOK TX32/2017Z TN17/2109Z 
     BECMG 2014/2016 14012KT 
     BECMG 2101/2103 11010KT 
     PROB30 2109/2111 5000 BR NSC RMK PGH
       
TAF SBCG 200930Z 2012/2112 08013KT CAVOK TX35/2018Z TN21/2109Z 
     BECMG 2014/2016 05010KT 
     BECMG 2018/2020 05008KT 
     BECMG 2100/2102 09009KT RMK PDV
       
TAF SBCP 200900Z 2012/2024 04020KT CAVOK TX29/2016Z TN22/2023Z 
     BECMG 2014/2016 09020KT 
     BECMG 2022/2024 08008KT RMK PGX
       
TAF SBCR 200930Z 2012/2112 14004KT CAVOK TX38/2018Z TN25/2109Z 
     BECMG 2014/2016 04008KT 2100/2102 12004KT RMK PDV
       
TAF SBCZ 192200Z 2000/2024 00000KT 8000 NSC TN19/2009Z TX34/2019Z BEC MG 2001/2003 18002KT 6000 NSC 
     BECMG 2005/2007 5000 BR NSC 
     BECMG 2009/20 11 3000 BR NSC 
     BECMG 2013/2015 18005KT 7000 NSC 
     BECMG 2017/2019 8000 FE W030 
     BECMG 2021/2023 18002KT 8000 NSC RMK PDY
       
TAF SBCY 201000Z 2012/2112 27005KT 5000 FU NSC TX38/2018Z TN22/2110Z 
     BECMG 2013/2015 36005KT 8000 
     BECMG 2017/2019 21005KT CAVOK 
     BECMG 2021/2023 18003KT 
     BECMG 2106/2108 36003KT 5000 FU NSC RMK PEO
       
TAF SBCT 200930Z 2012/2112 12006KT CAVOK TX29/2018Z TN10/2109Z 
     TEMPO 2012/2013 8000 SCT008 
     BECMG 2016/2018 09009KT 
     BECMG 2100/2102 12006KT 9999 SCT 010 
     PROB30 2108/2111 4000 BCFG BR NSC RMK PDV
       
TAF SBBI 200930Z 2012/2024 09005KT CAVOK TN16/2012Z TX29/2018Z 
     TEMPO 2012/2013 8000 SCT006 
     BECMG 2015/2017 09010KT RMK PDV
       
TAF SBFN 201000Z 2012/2024 14019KT 9999 SCT020 TX29/2015Z TN25/2021Z RMK PBO
       
TAF SBFL 200930Z 2012/2112 02007KT 9999 SCT025 TX25/2018Z TN19/2109Z 
     BECMG 2013/2015 01015KT CAVOK 
     BECMG 2100/2102 34007KT 9999 BKN025 RMK PDV
       
TAF SBFZ 201000Z 2012/2112 11016KT 9999 FEW020 TX30/2015Z TN25/2108Z RMK PBO
       
TAF SBFI 200930Z 2012/2112 10010KT CAVOK TX36/2018Z TN20/2109Z 
     BECMG 2014/2016 36008KT 
     BECMG 2018/2020 01008KT 
     BECMG 2100/2102 05005KT RMK PDV
       
TAF SBGO 200800Z 2012/2112 08013KT CAVOK TX33/2018Z TN19/2108Z 
     TEMPO 2015/2018 23005KT 
     BECMG 2103/2105 14004KT RMK PEC
       
TAF SBGW 200900Z 2012/2024 00000KT 7000 SCT020 TX31/2018Z TN23/2023Z 
     BECMG 2013/2015 06006KT CAVOK RMK PGX
       
TAF SBIL 201000Z 2012/2024 14011KT 7000 SCT020 TX26/2015Z TN23/2022Z RMK PBO
       
TAF SBIZ 201000Z 2012/2024 00000KT CAVOK TN31/2012Z TX38/2017Z 
     BECMG 2015/2017 10010KT 9999 SCT030 
     BECMG 2021/2023 08005KT CAVOK RMK PEO
       
TAF SBIH 201000Z 2012/2024 00000KT 6000 NSC TN27/2012Z TX35/2017Z 
     BECMG 2014/2016 16005KT 9999 SCT020 
     BECMG 2017/2019 24005KT FEW025 
     BECMG 2021/2023 00000KT 8000 NSC RMK PEO